Time;durP1;ratioP1;P1;durP2;ratioP2;P2;SDS_P1;SDS_P2;PMS_P1;PMS_P2;Temp;Humidity;BMP_temperature;BMP_pressure;BME280_temperature;BME280_humidity;BME280_pressure;Samples;Min_cycle;Max_cycle;Signal;HPM_P1;HPM_P2
2021/11/20 00:01:12;;;;;;;5.10;2.08;;;12.30;92.10;;;;;;5029354;28;20127;-78
2021/11/20 00:03:43;;;;;;;6.50;2.50;;;12.30;91.90;;;;;;5029135;28;20116;-78
2021/11/20 00:06:09;;;;;;;5.80;2.53;;;12.30;91.90;;;;;;5029196;28;20026;-79
2021/11/20 00:08:34;;;;;;;6.95;1.73;;;12.30;92.00;;;;;;5030780;28;20105;-79
2021/11/20 00:11:04;;;;;;;7.45;1.85;;;12.30;92.00;;;;;;5012961;28;20041;-78
2021/11/20 00:13:30;;;;;;;5.32;1.88;;;12.30;92.00;;;;;;5030678;28;20068;-79
2021/11/20 00:15:59;;;;;;;9.93;2.85;;;12.30;92.00;;;;;;5029506;28;20033;-79
2021/11/20 00:18:25;;;;;;;4.82;2.10;;;12.20;92.00;;;;;;5029220;28;20022;-80
2021/11/20 00:20:55;;;;;;;;;;;12.30;92.00;;;;;;5029788;28;20391;-79
2021/11/20 00:23:26;;;;;;;5.82;2.25;;;12.20;92.00;;;;;;5030518;28;19913;-80
2021/11/20 00:25:55;;;;;;;5.53;2.08;;;12.30;92.00;;;;;;5030403;28;20023;-79
2021/11/20 00:28:31;;;;;;;3.90;1.65;;;12.20;92.00;;;;;;5030579;28;20018;-78
2021/11/20 00:30:59;;;;;;;9.10;2.10;;;12.20;92.00;;;;;;5033636;28;20029;-79
2021/11/20 00:33:28;;;;;;;6.72;2.00;;;12.30;92.00;;;;;;5032750;28;20056;-79
2021/11/20 00:35:55;;;;;;;4.35;1.80;;;12.30;91.90;;;;;;5034051;28;20047;-80
2021/11/20 00:38:22;;;;;;;3.25;1.48;;;12.30;91.90;;;;;;5034017;28;20076;-78
2021/11/20 00:40:55;;;;;;;5.45;2.15;;;12.30;92.00;;;;;;5034135;28;20071;-79
2021/11/20 00:43:22;;;;;;;4.72;2.00;;;12.30;91.90;;;;;;5032618;28;20075;-79
2021/11/20 00:45:48;;;;;;;3.10;1.38;;;12.30;91.80;;;;;;5033900;28;20021;-79
2021/11/20 00:48:16;;;;;;;;;;;12.30;91.80;;;;;;5033226;28;20029;-79
2021/11/20 00:50:45;;;;;;;4.07;1.55;;;12.30;91.80;;;;;;5032483;28;19905;-78
2021/11/20 00:53:11;;;;;;;5.30;1.55;;;12.30;91.70;;;;;;5034011;28;20037;-79
2021/11/20 00:55:37;;;;;;;4.18;1.48;;;12.30;91.60;;;;;;5032547;28;20116;-80
2021/11/20 00:58:03;;;;;;;2.60;1.20;;;12.30;91.50;;;;;;5032447;28;20029;-80
2021/11/20 01:00:31;;;;;;;;;;;12.30;91.50;;;;;;5032727;28;20041;-78
2021/11/20 01:02:57;;;;;;;4.22;2.38;;;12.30;91.50;;;;;;5033693;28;19905;-79
2021/11/20 01:05:22;;;;;;;;;;;12.30;91.40;;;;;;5032686;28;20450;-79
2021/11/20 01:07:49;;;;;;;5.07;1.60;;;12.30;91.50;;;;;;5033614;28;19948;-79
2021/11/20 01:10:21;;;;;;;3.80;1.35;;;12.30;91.40;;;;;;5033526;28;20087;-79
2021/11/20 01:12:48;;;;;;;5.90;1.80;;;12.30;91.40;;;;;;5033529;28;20488;-78
2021/11/20 01:15:18;;;;;;;4.72;1.50;;;12.30;91.40;;;;;;5032085;28;20112;-79
2021/11/20 01:17:44;;;;;;;4.40;1.25;;;12.30;91.40;;;;;;5031888;28;20147;-79
2021/11/20 01:20:10;;;;;;;5.22;1.45;;;12.30;91.40;;;;;;5033171;28;20064;-80
2021/11/20 01:22:36;;;;;;;3.30;1.40;;;12.30;91.40;;;;;;5033248;28;20084;-79
2021/11/20 01:25:03;;;;;;;5.28;1.55;;;12.30;91.40;;;;;;5033119;28;20052;-80
2021/11/20 01:27:29;;;;;;;2.50;1.10;;;12.30;91.40;;;;;;5031862;28;20550;-80
2021/11/20 01:29:55;;;;;;;3.28;1.17;;;12.30;91.30;;;;;;5015414;28;20041;-79
2021/11/20 01:32:21;;;;;;;5.10;1.30;;;12.30;91.30;;;;;;5031785;28;20044;-80
2021/11/20 01:34:46;;;;;;;3.65;1.23;;;12.30;91.30;;;;;;5031736;28;20033;-78
2021/11/20 01:37:19;;;;;;;4.65;1.40;;;12.30;91.30;;;;;;5032965;28;20079;-79
2021/11/20 01:39:47;;;;;;;5.00;1.40;;;12.30;91.30;;;;;;5031530;28;20025;-80
2021/11/20 01:42:23;;;;;;;3.72;1.95;;;12.30;91.30;;;;;;5032358;28;20022;-80
2021/11/20 01:44:53;;;;;;;4.00;1.40;;;12.40;91.50;;;;;;5031389;28;20025;-79
2021/11/20 01:47:40;;;;;;;2.47;1.10;;;12.40;91.20;;;;;;5032791;28;20029;-80
2021/11/20 01:50:09;;;;;;;;;;;12.30;91.20;;;;;;5031936;28;20506;-80
2021/11/20 01:53:02;;;;;;;4.20;1.30;;;12.30;91.30;;;;;;5032684;28;19952;-79
2021/11/20 01:55:40;;;;;;;3.47;1.10;;;12.40;91.20;;;;;;5032610;28;20445;-78
2021/11/20 01:58:29;;;;;;;3.03;0.85;;;12.30;91.20;;;;;;5031122;28;20030;-78
2021/11/20 02:01:00;;;;;;;5.10;1.55;;;12.30;91.20;;;;;;5031293;28;20037;-79
2021/11/20 02:03:40;;;;;;;4.50;1.20;;;12.30;91.30;;;;;;5031257;28;20022;-79
2021/11/20 02:06:21;;;;;;;4.53;0.98;;;12.40;91.30;;;;;;5032617;28;20039;-79
2021/11/20 02:09:05;;;;;;;4.32;1.10;;;12.40;91.30;;;;;;5032487;28;20025;-79
2021/11/20 02:11:45;;;;;;;2.40;0.80;;;12.40;91.30;;;;;;5031162;28;20508;-79
2021/11/20 02:14:13;;;;;;;3.85;1.00;;;12.40;91.30;;;;;;5031125;28;20060;-79
2021/11/20 02:16:46;;;;;;;2.45;1.00;;;12.30;91.20;;;;;;5030885;28;20025;-79
2021/11/20 02:19:17;;;;;;;3.05;0.90;;;12.30;91.30;;;;;;5031001;28;20025;-80
2021/11/20 02:22:01;;;;;;;4.50;1.20;;;12.30;91.30;;;;;;5030967;28;20128;-79
2021/11/20 02:24:26;;;;;;;4.88;1.42;;;12.30;91.30;;;;;;5032400;28;20045;-79
2021/11/20 02:26:52;;;;;;;3.42;1.30;;;12.30;91.30;;;;;;5032094;28;20072;-79
2021/11/20 02:29:17;;;;;;;3.83;1.35;;;12.30;91.30;;;;;;5030700;28;20030;-80
2021/11/20 02:31:49;;;;;;;4.13;1.40;;;12.30;91.30;;;;;;5014209;28;20033;-79
2021/11/20 02:34:17;;;;;;;5.05;1.10;;;12.30;91.30;;;;;;5032387;28;20082;-79
2021/11/20 02:36:43;;;;;;;3.92;1.42;;;12.20;91.30;;;;;;5031972;28;20369;-79
2021/11/20 02:39:14;;;;;;;4.03;1.38;;;12.30;91.30;;;;;;5030910;28;20040;-78
2021/11/20 02:41:44;;;;;;;3.97;1.30;;;12.20;91.30;;;;;;5031879;28;20157;-79
2021/11/20 02:44:10;;;;;;;3.17;1.27;;;12.20;91.30;;;;;;5030656;28;20404;-79
2021/11/20 02:46:39;;;;;;;3.80;1.38;;;12.20;91.30;;;;;;5030384;28;20029;-79
2021/11/20 02:49:07;;;;;;;4.10;1.25;;;12.20;91.30;;;;;;5031730;28;20024;-79
2021/11/20 02:51:36;;;;;;;3.90;1.40;;;12.20;91.30;;;;;;5031656;28;20028;-80
2021/11/20 02:54:17;;;;;;;4.10;1.25;;;12.20;91.30;;;;;;5030636;28;20022;-79
2021/11/20 02:57:07;;;;;;;3.83;1.10;;;12.20;91.30;;;;;;5031613;28;20510;-79
2021/11/20 02:59:34;;;;;;;4.63;1.20;;;12.20;91.40;;;;;;5031301;28;20042;-79
2021/11/20 03:02:00;;;;;;;3.92;1.40;;;12.10;91.30;;;;;;5013786;28;20083;-79
2021/11/20 03:04:27;;;;;;;4.45;1.10;;;12.10;91.50;;;;;;5030298;28;20468;-79
2021/11/20 03:06:53;;;;;;;2.95;0.98;;;12.10;91.30;;;;;;5031402;28;20061;-79
2021/11/20 03:09:23;;;;;;;4.15;1.02;;;12.10;91.30;;;;;;5031315;28;20116;-80
2021/11/20 03:11:50;;;;;;;2.55;1.00;;;12.10;91.30;;;;;;5031338;28;20357;-79
2021/11/20 03:14:16;;;;;;;2.47;0.90;;;12.10;91.30;;;;;;5029935;28;20029;-79
2021/11/20 03:16:47;;;;;;;2.22;0.80;;;12.10;91.30;;;;;;5029947;28;20018;-79
2021/11/20 03:19:13;;;;;;;2.53;0.60;;;12.10;91.30;;;;;;5029848;28;20025;-78
2021/11/20 03:21:43;;;;;;;2.53;0.70;;;12.10;91.30;;;;;;5029931;28;20025;-79
2021/11/20 03:24:12;;;;;;;2.65;0.60;;;12.10;91.30;;;;;;5029639;28;20026;-79
2021/11/20 03:26:38;;;;;;;3.25;0.80;;;12.10;91.30;;;;;;5029841;28;20056;-79
2021/11/20 03:29:03;;;;;;;5.18;0.73;;;12.10;91.20;;;;;;5031191;28;20060;-79
2021/11/20 03:31:29;;;;;;;1.70;0.38;;;12.10;91.20;;;;;;5013351;28;20069;-79
2021/11/20 03:33:55;;;;;;;1.67;0.50;;;12.10;91.20;;;;;;5029953;28;20484;-79
2021/11/20 03:36:21;;;;;;;1.35;0.38;;;12.10;91.20;;;;;;5029937;28;20447;-79
2021/11/20 03:38:47;;;;;;;0.73;0.40;;;12.10;91.20;;;;;;5029773;28;20030;-78
2021/11/20 03:41:14;;;;;;;2.88;0.57;;;12.10;91.20;;;;;;5031044;28;20546;-78
2021/11/20 03:43:40;;;;;;;1.13;0.50;;;12.10;91.20;;;;;;5030861;28;20022;-78
2021/11/20 03:46:06;;;;;;;;;;;12.10;91.10;;;;;;5031415;28;20060;-79
2021/11/20 03:48:33;;;;;;;1.35;0.50;;;12.20;91.10;;;;;;5029715;28;19948;-78
2021/11/20 03:50:59;;;;;;;1.45;0.63;;;12.20;91.10;;;;;;5029527;28;20037;-79
2021/11/20 03:53:25;;;;;;;3.53;1.05;;;12.20;91.10;;;;;;5013051;28;20388;-80
2021/11/20 03:55:52;;;;;;;4.57;1.80;;;12.10;91.10;;;;;;5029453;28;20121;-75
2021/11/20 03:58:19;;;;;;;2.13;0.90;;;12.20;91.10;;;;;;5029405;28;20033;-79
2021/11/20 04:00:58;;;;;;;5.75;1.20;;;12.20;91.10;;;;;;5013311;28;20037;-79
2021/11/20 04:03:24;;;;;;;2.85;0.70;;;12.20;91.00;;;;;;5029578;28;20029;-79
2021/11/20 04:05:53;;;;;;;2.85;1.02;;;12.20;91.00;;;;;;5033028;28;20531;-79
2021/11/20 04:08:19;;;;;;;3.35;1.00;;;12.20;91.00;;;;;;5033318;28;20087;-80
2021/11/20 04:10:46;;;;;;;;;;;12.20;90.90;;;;;;5017400;28;20507;-80
2021/11/20 04:13:12;;;;;;;2.65;0.90;;;12.20;90.90;;;;;;5033224;28;20007;-80
2021/11/20 04:15:38;;;;;;;2.97;1.05;;;12.30;90.80;;;;;;5016726;28;20132;-79
2021/11/20 04:18:04;;;;;;;2.38;1.08;;;12.20;90.80;;;;;;5033286;28;20037;-78
2021/11/20 04:20:30;;;;;;;2.60;1.10;;;12.30;90.80;;;;;;5034348;28;20042;-78
2021/11/20 04:22:55;;;;;;;;;;;12.30;90.80;;;;;;5034886;28;20033;-79
2021/11/20 04:25:23;;;;;;;3.45;1.40;;;12.30;90.90;;;;;;5034357;28;19928;-79
2021/11/20 04:27:49;;;;;;;3.10;1.33;;;12.30;90.80;;;;;;5033024;28;20120;-79
2021/11/20 04:30:16;;;;;;;3.40;1.30;;;12.30;90.80;;;;;;5016559;28;20168;-79
2021/11/20 04:32:42;;;;;;;4.22;1.48;;;12.30;90.80;;;;;;5032875;28;20029;-79
2021/11/20 04:35:10;;;;;;;3.33;1.30;;;12.30;90.70;;;;;;5034053;28;20037;-77
2021/11/20 04:37:36;;;;;;;3.85;1.63;;;12.30;90.80;;;;;;5034076;28;20492;-79
2021/11/20 04:40:04;;;;;;;5.40;1.92;;;12.30;90.70;;;;;;5032777;28;20112;-78
2021/11/20 04:42:30;;;;;;;3.58;1.45;;;12.30;90.70;;;;;;5034010;28;20033;-78
2021/11/20 04:44:56;;;;;;;4.50;1.73;;;12.30;90.70;;;;;;5032581;28;20033;-78
2021/11/20 04:47:21;;;;;;;6.05;1.67;;;12.30;90.70;;;;;;5033916;28;20034;-78
2021/11/20 04:49:47;;;;;;;5.85;1.55;;;12.30;90.70;;;;;;5016238;28;20037;-79
2021/11/20 04:52:14;;;;;;;3.38;1.55;;;12.30;90.80;;;;;;5032662;28;20029;-79
2021/11/20 04:54:40;;;;;;;8.02;1.83;;;12.30;90.80;;;;;;5032339;28;20033;-79
2021/11/20 04:57:06;;;;;;;4.78;1.60;;;12.30;90.80;;;;;;5032541;28;20083;-79
2021/11/20 04:59:32;;;;;;;5.28;2.10;;;12.30;90.80;;;;;;5015732;28;20468;-79
2021/11/20 05:01:58;;;;;;;5.47;1.67;;;12.30;90.80;;;;;;5034140;28;20029;-78
2021/11/20 05:04:24;;;;;;;5.00;1.52;;;12.30;90.80;;;;;;5032371;28;20032;-79
2021/11/20 05:06:49;;;;;;;5.47;1.67;;;12.30;90.80;;;;;;5032472;28;20076;-79
2021/11/20 05:09:15;;;;;;;5.05;1.80;;;12.30;90.80;;;;;;5032279;28;20052;-79
2021/11/20 05:11:43;;;;;;;3.63;1.50;;;12.30;90.80;;;;;;5032474;28;20025;-80
2021/11/20 05:14:09;;;;;;;4.70;1.42;;;12.20;90.80;;;;;;5016066;28;20038;-78
2021/11/20 05:16:38;;;;;;;5.30;1.50;;;12.20;90.90;;;;;;5014613;28;20032;-79
2021/11/20 05:19:05;;;;;;;3.35;1.30;;;12.20;90.90;;;;;;5032121;28;20381;-78
2021/11/20 05:21:31;;;;;;;5.80;1.55;;;12.20;90.90;;;;;;5015641;28;20025;-78
2021/11/20 05:23:56;;;;;;;4.82;1.20;;;12.20;90.90;;;;;;5033173;28;20018;-79
2021/11/20 05:26:23;;;;;;;5.50;1.10;;;12.20;91.00;;;;;;5015440;28;20041;-79
2021/11/20 05:29:43;;;;;;;2.45;0.90;;;12.10;91.00;;;;;;5031896;28;20026;-79
2021/11/20 05:31:36;;;;;;;4.32;1.15;;;12.10;91.00;;;;;;5029045;28;20057;-79
2021/11/20 05:34:03;;;;;;;2.55;0.95;;;12.10;91.00;;;;;;5033104;28;20108;-79
2021/11/20 05:36:31;;;;;;;;;;;12.10;91.10;;;;;;5033540;28;20427;-78
2021/11/20 05:38:58;;;;;;;2.95;0.90;;;12.10;91.10;;;;;;5015534;28;19991;-79
2021/11/20 05:41:25;;;;;;;5.43;3.20;;;12.10;91.00;;;;;;5032942;28;20026;-79
2021/11/20 05:43:51;;;;;;;2.08;0.85;;;12.10;91.10;;;;;;5031423;28;20057;-78
2021/11/20 05:46:21;;;;;;;4.60;1.10;;;12.10;91.10;;;;;;5033288;28;20064;-79
2021/11/20 05:48:47;;;;;;;4.32;1.20;;;12.10;91.20;;;;;;5031620;28;20510;-78
2021/11/20 05:51:13;;;;;;;2.85;1.10;;;12.00;91.10;;;;;;5015185;28;20029;-79
2021/11/20 05:53:39;;;;;;;3.78;0.93;;;12.10;91.20;;;;;;5014955;28;20089;-79
2021/11/20 05:56:06;;;;;;;1.70;0.77;;;12.10;91.20;;;;;;5031505;28;20145;-78
2021/11/20 05:58:33;;;;;;;4.53;0.98;;;12.10;91.20;;;;;;5032506;28;20124;-79
2021/11/20 06:01:01;;;;;;;;;;;12.10;91.20;;;;;;5033009;28;20425;-78
2021/11/20 06:03:27;;;;;;;2.50;0.80;;;12.10;91.30;;;;;;5032528;28;19905;-79
2021/11/20 06:05:53;;;;;;;2.15;0.88;;;12.10;91.20;;;;;;5032503;28;20022;-78
2021/11/20 06:08:21;;;;;;;4.30;1.23;;;12.10;91.20;;;;;;5032535;28;20021;-79
2021/11/20 06:10:48;;;;;;;5.28;1.45;;;12.10;91.20;;;;;;5032332;28;20029;-79
2021/11/20 06:13:15;;;;;;;3.28;0.80;;;12.10;91.20;;;;;;5015070;28;20395;-78
2021/11/20 06:15:41;;;;;;;;;;;12.10;91.20;;;;;;5032646;28;20036;-78
2021/11/20 06:18:08;;;;;;;2.80;1.02;;;12.10;91.30;;;;;;5032309;28;19912;-78
2021/11/20 06:20:34;;;;;;;4.53;1.00;;;12.10;91.30;;;;;;5032267;28;20026;-79
2021/11/20 06:23:00;;;;;;;3.08;1.13;;;12.10;91.30;;;;;;5032311;28;20021;-78
2021/11/20 06:25:26;;;;;;;2.88;1.20;;;12.00;91.30;;;;;;5030882;28;20080;-78
2021/11/20 06:27:51;;;;;;;2.83;1.20;;;12.10;91.30;;;;;;5030683;28;20436;-79
2021/11/20 06:30:21;;;;;;;2.92;1.10;;;12.00;91.30;;;;;;5030786;28;20030;-78
2021/11/20 06:32:48;;;;;;;4.47;1.00;;;12.00;91.30;;;;;;5030747;28;20423;-79
2021/11/20 06:35:17;;;;;;;3.22;0.90;;;12.00;91.40;;;;;;5030506;28;20036;-79
2021/11/20 06:37:45;;;;;;;7.13;1.70;;;12.00;91.40;;;;;;5030451;28;20079;-78
2021/11/20 06:40:24;;;;;;;4.13;1.10;;;12.00;91.40;;;;;;5031743;28;20029;-79
2021/11/20 06:42:51;;;;;;;4.22;1.15;;;12.00;91.50;;;;;;5031970;28;20026;-78
2021/11/20 06:45:21;;;;;;;4.00;0.93;;;12.00;91.50;;;;;;5031891;28;20021;-79
2021/11/20 06:47:48;;;;;;;4.57;1.00;;;12.00;91.50;;;;;;5030501;28;20025;-78
2021/11/20 06:50:14;;;;;;;2.38;0.82;;;11.90;91.50;;;;;;5014146;28;20029;-80
2021/11/20 06:52:41;;;;;;;2.53;1.00;;;12.00;91.60;;;;;;5031646;28;20057;-78
2021/11/20 06:55:09;;;;;;;4.45;1.20;;;12.00;91.60;;;;;;5030302;28;20029;-78
2021/11/20 07:00:27;;;;;;;4.50;1.20;;;12.00;91.60;;;;;;5031408;28;20049;-79
2021/11/20 07:03:11;;;;;;;4.28;1.27;;;11.90;91.60;;;;;;5031521;28;20017;-79
2021/11/20 07:05:42;;;;;;;3.72;0.95;;;11.90;91.60;;;;;;5030255;28;20424;-79
2021/11/20 07:08:09;;;;;;;4.13;1.00;;;11.90;91.60;;;;;;5030348;28;20455;-79
2021/11/20 07:10:36;;;;;;;4.10;1.02;;;11.90;91.60;;;;;;5031281;28;20100;-79
2021/11/20 07:13:03;;;;;;;4.80;1.95;;;11.90;91.60;;;;;;5013615;28;20041;-79
2021/11/20 07:15:28;;;;;;;;;;;11.90;91.70;;;;;;5030354;28;20029;-78
2021/11/20 07:17:55;;;;;;;3.65;1.13;;;11.90;91.70;;;;;;5030043;28;19931;-79
2021/11/20 07:20:27;;;;;;;5.90;1.02;;;11.90;91.70;;;;;;5029955;28;20087;-79
2021/11/20 07:22:55;;;;;;;4.13;0.80;;;11.90;91.70;;;;;;5029757;28;20022;-78
2021/11/20 07:25:22;;;;;;;4.53;1.20;;;11.90;91.70;;;;;;5029852;28;20021;-78
2021/11/20 07:27:48;;;;;;;4.22;1.10;;;11.90;91.70;;;;;;5031120;28;20483;-79
2021/11/20 07:30:16;;;;;;;3.80;1.10;;;11.90;91.70;;;;;;5013796;28;20037;-81
2021/11/20 07:32:42;;;;;;;2.80;1.00;;;11.90;91.80;;;;;;5030287;28;20087;-80
2021/11/20 07:35:09;;;;;;;2.05;0.70;;;11.90;91.80;;;;;;5031153;28;20026;-79
2021/11/20 07:37:35;;;;;;;4.72;1.23;;;11.90;91.80;;;;;;5030983;28;20396;-80
2021/11/20 07:40:04;;;;;;;5.30;1.15;;;11.80;91.90;;;;;;5031896;28;20029;-79
2021/11/20 07:42:29;;;;;;;5.25;1.00;;;11.80;91.90;;;;;;5033691;28;20036;-80
2021/11/20 07:44:59;;;;;;;2.65;0.95;;;11.80;91.90;;;;;;5017211;28;20029;-79
2021/11/20 07:47:25;;;;;;;2.60;1.35;;;11.80;91.90;;;;;;5035063;28;20029;-80
2021/11/20 07:49:51;;;;;;;6.03;1.27;;;11.80;91.90;;;;;;5034993;28;20033;-76
2021/11/20 07:52:16;;;;;;;2.38;0.80;;;11.80;91.90;;;;;;5033541;28;20033;-79
2021/11/20 07:54:42;;;;;;;4.80;1.00;;;11.70;91.90;;;;;;5033388;28;20033;-80
2021/11/20 07:57:08;;;;;;;3.13;1.20;;;11.80;92.00;;;;;;5034902;28;20030;-79
2021/11/20 07:59:34;;;;;;;3.58;1.05;;;11.70;92.00;;;;;;5034441;28;20052;-79
2021/11/20 08:02:00;;;;;;;3.30;1.10;;;11.80;92.10;;;;;;5034713;28;20384;-79
2021/11/20 08:04:26;;;;;;;3.95;1.10;;;11.80;92.10;;;;;;5034940;28;20034;-78
2021/11/20 08:06:51;;;;;;;5.80;1.35;;;11.80;92.10;;;;;;5033496;28;20025;-78
2021/11/20 08:09:18;;;;;;;3.85;1.00;;;11.80;92.10;;;;;;5017130;28;20053;-78
2021/11/20 08:11:43;;;;;;;4.53;1.00;;;11.90;92.10;;;;;;5037744;28;20483;-78
2021/11/20 08:14:10;;;;;;;4.50;0.90;;;11.90;92.10;;;;;;5034622;28;20029;-80
2021/11/20 08:16:38;;;;;;;;;;;11.90;92.10;;;;;;5034904;28;20384;-80
2021/11/20 08:19:05;;;;;;;3.70;0.80;;;12.00;92.10;;;;;;5034477;28;19908;-78
2021/11/20 08:21:31;;;;;;;5.45;1.30;;;12.00;92.10;;;;;;5033025;28;20440;-78
2021/11/20 08:23:56;;;;;;;3.95;0.75;;;12.00;92.10;;;;;;5033095;28;20037;-78
2021/11/20 08:26:25;;;;;;;4.60;0.93;;;12.00;92.20;;;;;;5033000;28;20030;-79
2021/11/20 08:28:51;;;;;;;4.43;0.80;;;12.00;92.20;;;;;;5032892;28;20120;-79
2021/11/20 08:31:17;;;;;;;5.18;1.08;;;12.10;92.30;;;;;;5016561;28;20029;-77
2021/11/20 08:33:43;;;;;;;3.97;0.80;;;12.10;92.30;;;;;;5033960;28;20480;-78
2021/11/20 08:36:13;;;;;;;5.20;1.08;;;12.10;92.30;;;;;;5033971;28;20049;-79
2021/11/20 08:38:40;;;;;;;14.52;1.45;;;12.10;92.40;;;;;;5033877;28;20041;-79
2021/11/20 08:41:07;;;;;;;5.80;1.58;;;12.00;92.40;;;;;;5032394;28;20067;-77
2021/11/20 08:43:33;;;;;;;4.85;1.40;;;12.00;92.60;;;;;;5032623;28;20022;-79
2021/11/20 08:46:02;;;;;;;4.95;0.93;;;11.80;92.80;;;;;;5015881;28;20488;-77
2021/11/20 08:48:28;;;;;;;6.65;1.70;;;11.80;93.00;;;;;;5034061;28;20064;-78
2021/11/20 08:51:05;;;;;;;;;;;11.70;93.10;;;;;;5016671;28;20496;-78
2021/11/20 08:53:31;;;;;;;7.45;1.40;;;11.50;93.10;;;;;;5033665;28;20386;-75
2021/11/20 08:55:58;;;;;;;;;;;11.40;93.20;;;;;;5032877;28;20029;-79
2021/11/20 08:58:24;;;;;;;3.15;1.40;;;11.30;93.50;;;;;;5032123;28;19952;-78
2021/11/20 09:00:50;;;;;;;7.25;1.50;;;11.20;93.60;;;;;;5033666;28;20107;-80
2021/11/20 09:03:35;;;;;;;5.78;1.42;;;11.20;93.90;;;;;;5033699;28;20523;-79
2021/11/20 09:06:18;;;;;;;5.00;1.38;;;11.10;94.00;;;;;;5032344;28;20025;-79
2021/11/20 09:08:49;;;;;;;8.90;1.50;;;11.00;94.30;;;;;;5033480;28;20261;-79
2021/11/20 09:11:33;;;;;;;6.47;1.48;;;11.30;95.50;;;;;;5033148;28;20028;-79
2021/11/20 09:14:06;;;;;;;9.05;1.90;;;12.20;96.20;;;;;;5033530;28;20033;-78
2021/11/20 09:16:34;;;;;;;6.70;1.25;;;13.10;95.80;;;;;;5033748;28;20044;-79
2021/11/20 09:19:00;;;;;;;4.53;1.20;;;13.70;94.80;;;;;;5033393;28;20491;-78
2021/11/20 09:21:29;;;;;;;8.88;1.63;;;14.00;94.30;;;;;;5033038;28;20034;-79
2021/11/20 09:23:56;;;;;;;9.40;1.63;;;14.40;94.00;;;;;;5031744;28;20084;-79
2021/11/20 09:26:22;;;;;;;5.03;1.80;;;14.90;93.50;;;;;;5033054;28;20075;-79
2021/11/20 09:28:48;;;;;;;6.22;1.17;;;15.10;93.10;;;;;;5031718;28;20121;-78
2021/11/20 09:31:15;;;;;;;4.30;1.10;;;15.60;93.20;;;;;;5032014;28;20033;-78
2021/11/20 09:33:42;;;;;;;3.55;1.13;;;16.20;93.00;;;;;;5031576;28;20030;-79
2021/11/20 09:36:08;;;;;;;7.60;1.38;;;16.70;92.40;;;;;;5033047;28;20048;-78
2021/11/20 09:38:35;;;;;;;5.25;1.42;;;16.60;91.10;;;;;;5032884;28;20032;-78
2021/11/20 09:41:10;;;;;;;6.43;1.33;;;16.70;91.00;;;;;;5031539;28;20037;-78
2021/11/20 09:43:40;;;;;;;5.78;2.40;;;16.90;90.90;;;;;;5044370;28;20075;-80
2021/11/20 09:46:26;;;;;;;5.72;1.90;;;17.20;90.90;;;;;;5053025;28;20371;-78
2021/11/20 09:49:02;;;;;;;7.35;1.67;;;17.70;90.50;;;;;;5052995;28;20021;-77
2021/11/20 09:51:31;;;;;;;5.85;1.70;;;18.10;89.70;;;;;;5054671;28;20478;-80
2021/11/20 09:54:00;;;;;;;4.75;1.48;;;18.40;89.40;;;;;;5052803;28;20086;-78
2021/11/20 09:56:30;;;;;;;4.07;1.83;;;18.70;87.90;;;;;;5053915;28;20029;-79
2021/11/20 09:59:04;;;;;;;6.72;1.70;;;18.90;86.10;;;;;;5052602;28;20563;-78
2021/11/20 10:01:55;;;;;;;6.07;1.17;;;19.00;85.20;;;;;;5053360;28;20082;-79
2021/11/20 10:04:29;;;;;;;7.90;2.00;;;19.30;84.50;;;;;;5050250;28;20021;-78
2021/11/20 10:07:23;;;;;;;6.88;1.60;;;19.60;83.90;;;;;;5045749;28;20018;-78
2021/11/20 10:09:52;;;;;;;7.55;1.40;;;19.20;81.10;;;;;;5034740;28;20070;-80
2021/11/20 10:12:25;;;;;;;8.05;2.25;;;18.70;81.90;;;;;;5039681;28;20020;-77
2021/11/20 10:15:00;;;;;;;6.05;1.80;;;18.90;82.80;;;;;;5047725;28;20025;-78
2021/11/20 10:17:58;;;;;;;8.27;2.30;;;19.00;82.10;;;;;;5053647;28;20456;-77
2021/11/20 10:20:44;;;;;;;3.90;1.80;;;19.30;82.10;;;;;;5024025;28;20048;-74
2021/11/20 10:23:10;;;;;;;6.72;1.17;;;19.70;81.70;;;;;;5053054;28;20021;-74
2021/11/20 10:25:45;;;;;;;;;;;20.00;81.20;;;;;;5053580;28;20020;-75
2021/11/20 10:28:47;;;;;;;7.15;1.90;;;19.90;79.10;;;;;;5053637;28;19908;-77
2021/11/20 10:31:16;;;;;;;6.28;1.63;;;19.70;79.20;;;;;;5053291;28;20024;-78
2021/11/20 10:33:48;;;;;;;4.18;1.15;;;19.90;79.50;;;;;;5053082;28;20067;-77
2021/11/20 10:36:32;;;;;;;4.13;1.55;;;19.80;78.10;;;;;;5054100;28;20460;-77
2021/11/20 10:39:06;;;;;;;4.07;1.13;;;19.70;77.70;;;;;;5053848;28;20080;-80
2021/11/20 10:41:54;;;;;;;7.13;1.80;;;19.90;78.20;;;;;;5051807;28;20024;-78
2021/11/20 10:44:37;;;;;;;6.40;1.80;;;20.20;77.20;;;;;;5053107;28;20032;-79
2021/11/20 10:47:12;;;;;;;5.10;1.60;;;20.20;76.10;;;;;;5052476;28;20025;-79
2021/11/20 10:50:14;;;;;;;6.20;1.52;;;19.90;75.90;;;;;;5053506;28;20070;-79
2021/11/20 10:53:08;;;;;;;8.13;1.80;;;19.70;75.50;;;;;;5051989;28;20017;-78
2021/11/20 10:55:57;;;;;;;7.63;1.38;;;19.10;75.10;;;;;;5052122;28;20021;-79
2021/11/20 10:58:34;;;;;;;6.15;1.23;;;18.50;75.50;;;;;;5045866;28;20057;-76
2021/11/20 11:01:19;;;;;;;5.22;1.60;;;18.10;76.20;;;;;;5041249;28;20029;-80
2021/11/20 11:03:49;;;;;;;6.35;1.30;;;17.70;76.70;;;;;;5036800;28;20018;-78
2021/11/20 11:06:30;;;;;;;6.30;1.63;;;17.50;77.60;;;;;;5050717;28;20357;-78
2021/11/20 11:09:00;;;;;;;8.75;1.70;;;17.40;78.30;;;;;;5044562;28;20019;-77
2021/11/20 11:11:37;;;;;;;5.85;1.38;;;17.30;78.10;;;;;;5042381;28;20021;-76
2021/11/20 11:14:03;;;;;;;6.35;1.63;;;17.10;78.20;;;;;;5049092;28;20221;-76
2021/11/20 11:16:49;;;;;;;11.32;2.33;;;16.80;78.40;;;;;;5042648;28;20638;-77
2021/11/20 11:19:42;;;;;;;6.63;2.10;;;16.70;79.00;;;;;;5037736;28;20065;-80
2021/11/20 11:22:25;;;;;;;11.82;3.13;;;16.50;79.50;;;;;;5038735;28;20021;-79
2021/11/20 11:25:08;;;;;;;9.23;2.80;;;16.40;80.30;;;;;;5042321;28;20029;-79
2021/11/20 11:27:56;;;;;;;9.80;3.38;;;16.30;80.00;;;;;;5041847;28;20021;-75
2021/11/20 11:30:37;;;;;;;6.20;2.33;;;16.20;80.70;;;;;;5043785;28;20391;-77
2021/11/20 11:33:04;;;;;;;11.30;2.15;;;16.10;81.00;;;;;;5038266;28;20119;-76
2021/11/20 11:36:08;;;;;;;10.80;3.15;;;16.10;81.10;;;;;;5040280;28;20025;-79
2021/11/20 11:39:09;;;;;;;6.13;2.30;;;16.10;81.50;;;;;;5034056;28;20096;-74
2021/11/20 11:41:41;;;;;;;11.48;2.70;;;16.00;81.70;;;;;;5041678;28;20112;-79
2021/11/20 11:44:51;;;;;;;6.50;2.10;;;15.90;82.00;;;;;;5041463;28;20480;-79
2021/11/20 11:47:29;;;;;;;11.52;2.85;;;15.90;82.60;;;;;;5037216;28;20563;-78
2021/11/20 11:50:16;;;;;;;9.85;3.10;;;15.80;82.40;;;;;;5039607;28;20699;-78
2021/11/20 11:52:47;;;;;;;;;;;15.70;82.70;;;;;;5031537;28;20080;-79
2021/11/20 11:55:19;;;;;;;8.95;3.13;;;15.70;82.90;;;;;;5039222;28;19905;-77
2021/11/20 11:58:07;;;;;;;10.93;3.03;;;15.60;82.80;;;;;;5042338;28;20018;-79
2021/11/20 12:01:05;;;;;;;7.47;2.78;;;15.50;83.30;;;;;;5050612;28;20037;-78
2021/11/20 12:03:32;;;;;;;;;;;15.50;83.70;;;;;;5052666;28;20033;-78
2021/11/20 12:06:16;;;;;;;8.60;2.90;;;15.50;83.70;;;;;;5052580;28;19905;-76
2021/11/20 12:08:52;;;;;;;11.55;2.30;;;15.50;84.10;;;;;;5051978;28;20032;-76
2021/11/20 12:11:40;;;;;;;13.35;2.67;;;15.50;84.40;;;;;;5051826;28;20017;-76
2021/11/20 12:14:15;;;;;;;8.15;1.90;;;15.50;84.80;;;;;;5051131;28;20032;-75
2021/11/20 12:16:46;;;;;;;8.43;2.33;;;15.50;84.80;;;;;;5046706;28;20111;-78
2021/11/20 12:19:27;;;;;;;10.07;2.72;;;15.50;84.90;;;;;;5043323;28;20041;-78
2021/11/20 12:22:21;;;;;;;6.57;2.13;;;15.40;85.30;;;;;;5039456;28;20108;-77
2021/11/20 12:24:58;;;;;;;6.60;2.13;;;15.40;85.60;;;;;;5041773;28;20033;-75
2021/11/20 12:27:32;;;;;;;;;;;15.40;85.70;;;;;;5047087;28;20384;-77
2021/11/20 12:30:16;;;;;;;8.13;2.47;;;15.40;85.90;;;;;;5049034;28;19905;-76
2021/11/20 12:33:04;;;;;;;7.00;2.17;;;15.30;85.70;;;;;;5045503;28;20435;-76
2021/11/20 12:36:08;;;;;;;11.25;2.72;;;15.20;86.20;;;;;;5049872;28;20032;-76
2021/11/20 12:38:43;;;;;;;5.78;1.90;;;15.00;86.80;;;;;;5024757;28;20037;-77
2021/11/20 12:41:41;;;;;;;8.77;2.50;;;14.90;87.20;;;;;;5045706;28;20025;-77
2021/11/20 12:44:15;;;;;;;7.22;2.22;;;14.80;87.80;;;;;;5040728;28;20436;-77
2021/11/20 12:47:02;;;;;;;10.73;2.22;;;14.70;88.20;;;;;;5043617;28;20044;-76
2021/11/20 12:50:01;;;;;;;6.85;1.80;;;14.60;89.00;;;;;;5038557;28;20032;-76
2021/11/20 12:52:48;;;;;;;15.55;9.38;;;14.60;89.30;;;;;;5040055;28;20033;-75
2021/11/20 12:55:19;;;;;;;8.02;1.85;;;14.50;89.60;;;;;;5039473;28;20388;-77
2021/11/20 12:57:48;;;;;;;10.48;2.08;;;14.50;90.00;;;;;;5045850;28;20083;-78
2021/11/20 13:00:20;;;;;;;7.53;2.42;;;14.50;90.10;;;;;;5047604;28;20053;-78
2021/11/20 13:03:05;;;;;;;5.45;2.22;;;14.50;90.20;;;;;;5044275;28;20033;-78
2021/11/20 13:05:56;;;;;;;7.65;1.90;;;14.50;90.30;;;;;;5037250;28;20100;-75
2021/11/20 13:08:21;;;;;;;8.77;2.08;;;14.50;90.40;;;;;;5050889;28;20024;-77
2021/11/20 13:11:10;;;;;;;9.98;1.75;;;14.40;90.40;;;;;;5046734;28;20384;-78
2021/11/20 13:13:39;;;;;;;10.00;2.55;;;14.50;90.50;;;;;;5044147;28;20419;-76
2021/11/20 13:16:33;;;;;;;8.20;2.42;;;14.50;90.50;;;;;;5045524;28;20021;-77